sensor_id;sensor_type;location;lat;lon;timestamp;temperature;humidity
39695;DHT22;25367;-35.352;149.036;2022-10-31T00:01:43;25.30;44.10
39695;DHT22;25367;-35.352;149.036;2022-10-31T00:04:13;25.30;44.10
39695;DHT22;25367;-35.352;149.036;2022-10-31T00:06:44;25.20;45.00
39695;DHT22;25367;-35.352;149.036;2022-10-31T00:09:13;25.00;45.30
39695;DHT22;25367;-35.352;149.036;2022-10-31T00:11:43;25.10;45.00
39695;DHT22;25367;-35.352;149.036;2022-10-31T00:14:12;25.20;45.00
39695;DHT22;25367;-35.352;149.036;2022-10-31T00:16:41;25.20;44.90
39695;DHT22;25367;-35.352;149.036;2022-10-31T00:19:11;25.40;44.90
39695;DHT22;25367;-35.352;149.036;2022-10-31T00:21:40;25.40;44.80
39695;DHT22;25367;-35.352;149.036;2022-10-31T00:24:12;25.40;45.00
39695;DHT22;25367;-35.352;149.036;2022-10-31T00:26:41;25.40;45.00
39695;DHT22;25367;-35.352;149.036;2022-10-31T00:29:11;25.40;45.00
39695;DHT22;25367;-35.352;149.036;2022-10-31T00:31:40;25.40;45.00
39695;DHT22;25367;-35.352;149.036;2022-10-31T00:34:09;25.30;45.00
39695;DHT22;25367;-35.352;149.036;2022-10-31T00:36:39;25.30;45.70
39695;DHT22;25367;-35.352;149.036;2022-10-31T00:39:10;25.30;45.70
39695;DHT22;25367;-35.352;149.036;2022-10-31T00:41:40;25.30;45.50
39695;DHT22;25367;-35.352;149.036;2022-10-31T00:44:14;25.30;45.40
39695;DHT22;25367;-35.352;149.036;2022-10-31T00:46:43;25.30;45.20
39695;DHT22;25367;-35.352;149.036;2022-10-31T00:49:13;25.30;45.20
39695;DHT22;25367;-35.352;149.036;2022-10-31T00:51:42;25.40;45.00
39695;DHT22;25367;-35.352;149.036;2022-10-31T00:54:14;25.30;45.00
39695;DHT22;25367;-35.352;149.036;2022-10-31T00:56:43;25.30;45.20
39695;DHT22;25367;-35.352;149.036;2022-10-31T00:59:12;25.30;45.20
39695;DHT22;25367;-35.352;149.036;2022-10-31T01:01:43;25.20;45.30
39695;DHT22;25367;-35.352;149.036;2022-10-31T01:04:13;25.20;45.40
39695;DHT22;25367;-35.352;149.036;2022-10-31T01:06:42;25.20;45.50
39695;DHT22;25367;-35.352;149.036;2022-10-31T01:09:13;25.30;45.40
39695;DHT22;25367;-35.352;149.036;2022-10-31T01:11:43;25.20;45.40
39695;DHT22;25367;-35.352;149.036;2022-10-31T01:14:12;25.30;45.60
39695;DHT22;25367;-35.352;149.036;2022-10-31T01:16:42;25.20;45.70
39695;DHT22;25367;-35.352;149.036;2022-10-31T01:19:11;25.30;45.80
39695;DHT22;25367;-35.352;149.036;2022-10-31T01:21:40;25.20;46.10
39695;DHT22;25367;-35.352;149.036;2022-10-31T01:24:10;25.20;46.30
39695;DHT22;25367;-35.352;149.036;2022-10-31T01:26:42;25.20;46.50
39695;DHT22;25367;-35.352;149.036;2022-10-31T01:29:12;25.10;46.80
39695;DHT22;25367;-35.352;149.036;2022-10-31T01:31:41;25.10;46.70
39695;DHT22;25367;-35.352;149.036;2022-10-31T01:34:14;25.10;46.70
39695;DHT22;25367;-35.352;149.036;2022-10-31T01:36:44;25.10;46.60
39695;DHT22;25367;-35.352;149.036;2022-10-31T01:39:15;25.10;46.50
39695;DHT22;25367;-35.352;149.036;2022-10-31T01:41:48;25.10;46.50
39695;DHT22;25367;-35.352;149.036;2022-10-31T01:47:06;25.20;46.40
39695;DHT22;25367;-35.352;149.036;2022-10-31T01:49:40;25.20;46.60
39695;DHT22;25367;-35.352;149.036;2022-10-31T01:52:17;25.30;46.50
39695;DHT22;25367;-35.352;149.036;2022-10-31T01:54:50;25.30;46.80
39695;DHT22;25367;-35.352;149.036;2022-10-31T01:57:23;25.20;46.80
39695;DHT22;25367;-35.352;149.036;2022-10-31T01:59:57;25.20;47.10
39695;DHT22;25367;-35.352;149.036;2022-10-31T02:02:28;25.10;47.30
39695;DHT22;25367;-35.352;149.036;2022-10-31T02:05:00;25.10;47.90
39695;DHT22;25367;-35.352;149.036;2022-10-31T02:07:36;25.10;47.40
39695;DHT22;25367;-35.352;149.036;2022-10-31T02:10:10;25.20;47.10
39695;DHT22;25367;-35.352;149.036;2022-10-31T02:12:42;25.20;46.90
39695;DHT22;25367;-35.352;149.036;2022-10-31T02:15:15;25.30;46.70
39695;DHT22;25367;-35.352;149.036;2022-10-31T02:17:45;25.30;46.80
39695;DHT22;25367;-35.352;149.036;2022-10-31T02:20:18;25.30;46.90
39695;DHT22;25367;-35.352;149.036;2022-10-31T02:23:13;25.20;46.80
39695;DHT22;25367;-35.352;149.036;2022-10-31T02:25:59;25.30;46.80
39695;DHT22;25367;-35.352;149.036;2022-10-31T02:31:43;25.20;47.00
39695;DHT22;25367;-35.352;149.036;2022-10-31T02:34:19;25.20;47.10
39695;DHT22;25367;-35.352;149.036;2022-10-31T02:36:54;25.20;46.90
39695;DHT22;25367;-35.352;149.036;2022-10-31T02:39:28;25.10;45.60
39695;DHT22;25367;-35.352;149.036;2022-10-31T02:42:07;25.10;45.50
39695;DHT22;25367;-35.352;149.036;2022-10-31T02:44:42;25.10;45.50
39695;DHT22;25367;-35.352;149.036;2022-10-31T02:47:17;25.20;45.90
39695;DHT22;25367;-35.352;149.036;2022-10-31T02:49:52;25.20;46.10
39695;DHT22;25367;-35.352;149.036;2022-10-31T02:52:24;25.10;46.10
39695;DHT22;25367;-35.352;149.036;2022-10-31T02:54:54;25.10;46.20
39695;DHT22;25367;-35.352;149.036;2022-10-31T02:57:26;25.10;46.30
39695;DHT22;25367;-35.352;149.036;2022-10-31T02:59:57;25.00;46.50
39695;DHT22;25367;-35.352;149.036;2022-10-31T03:02:44;25.10;46.20
39695;DHT22;25367;-35.352;149.036;2022-10-31T03:05:37;25.20;46.00
39695;DHT22;25367;-35.352;149.036;2022-10-31T03:08:14;25.10;46.00
39695;DHT22;25367;-35.352;149.036;2022-10-31T03:10:49;25.20;46.00
39695;DHT22;25367;-35.352;149.036;2022-10-31T03:13:25;25.10;46.10
39695;DHT22;25367;-35.352;149.036;2022-10-31T03:16:05;25.10;46.40
39695;DHT22;25367;-35.352;149.036;2022-10-31T03:18:40;25.10;46.50
39695;DHT22;25367;-35.352;149.036;2022-10-31T03:21:16;25.10;46.60
39695;DHT22;25367;-35.352;149.036;2022-10-31T03:23:48;25.00;46.60
39695;DHT22;25367;-35.352;149.036;2022-10-31T03:26:22;25.00;46.50
39695;DHT22;25367;-35.352;149.036;2022-10-31T03:28:55;25.00;46.60
39695;DHT22;25367;-35.352;149.036;2022-10-31T03:31:31;25.00;46.60
39695;DHT22;25367;-35.352;149.036;2022-10-31T03:34:06;25.00;46.80
39695;DHT22;25367;-35.352;149.036;2022-10-31T03:36:39;25.00;46.80
39695;DHT22;25367;-35.352;149.036;2022-10-31T03:39:13;25.00;46.80
39695;DHT22;25367;-35.352;149.036;2022-10-31T03:41:46;25.00;46.80
39695;DHT22;25367;-35.352;149.036;2022-10-31T03:44:19;25.00;46.60
39695;DHT22;25367;-35.352;149.036;2022-10-31T03:46:58;25.00;46.50
39695;DHT22;25367;-35.352;149.036;2022-10-31T03:49:30;25.10;46.50
39695;DHT22;25367;-35.352;149.036;2022-10-31T03:52:03;25.00;46.30
39695;DHT22;25367;-35.352;149.036;2022-10-31T03:54:38;25.00;46.50
39695;DHT22;25367;-35.352;149.036;2022-10-31T03:57:16;25.00;46.60
39695;DHT22;25367;-35.352;149.036;2022-10-31T03:59:51;25.00;46.60
39695;DHT22;25367;-35.352;149.036;2022-10-31T04:02:26;25.00;46.60
39695;DHT22;25367;-35.352;149.036;2022-10-31T04:05:00;24.90;46.70
39695;DHT22;25367;-35.352;149.036;2022-10-31T04:07:35;25.00;46.80
39695;DHT22;25367;-35.352;149.036;2022-10-31T04:10:11;25.00;46.60
39695;DHT22;25367;-35.352;149.036;2022-10-31T04:12:48;25.00;46.60
39695;DHT22;25367;-35.352;149.036;2022-10-31T04:15:23;25.20;46.40
39695;DHT22;25367;-35.352;149.036;2022-10-31T04:17:55;25.40;46.20
39695;DHT22;25367;-35.352;149.036;2022-10-31T04:20:36;25.60;45.70
39695;DHT22;25367;-35.352;149.036;2022-10-31T04:23:08;25.70;45.70
39695;DHT22;25367;-35.352;149.036;2022-10-31T04:25:40;25.70;46.00
39695;DHT22;25367;-35.352;149.036;2022-10-31T04:28:09;25.80;46.30
39695;DHT22;25367;-35.352;149.036;2022-10-31T04:30:39;25.90;46.50
39695;DHT22;25367;-35.352;149.036;2022-10-31T04:33:09;26.00;46.70
39695;DHT22;25367;-35.352;149.036;2022-10-31T04:35:41;26.00;47.20
39695;DHT22;25367;-35.352;149.036;2022-10-31T04:38:12;25.90;46.50
39695;DHT22;25367;-35.352;149.036;2022-10-31T04:40:42;25.80;46.40
39695;DHT22;25367;-35.352;149.036;2022-10-31T04:43:35;25.90;46.40
39695;DHT22;25367;-35.352;149.036;2022-10-31T04:46:04;25.90;46.10
39695;DHT22;25367;-35.352;149.036;2022-10-31T04:48:34;25.90;46.00
39695;DHT22;25367;-35.352;149.036;2022-10-31T04:51:10;25.90;45.90
39695;DHT22;25367;-35.352;149.036;2022-10-31T04:53:39;25.90;45.90
39695;DHT22;25367;-35.352;149.036;2022-10-31T04:56:26;25.90;45.90
39695;DHT22;25367;-35.352;149.036;2022-10-31T04:59:01;26.00;45.90
39695;DHT22;25367;-35.352;149.036;2022-10-31T05:01:41;25.90;46.50
39695;DHT22;25367;-35.352;149.036;2022-10-31T05:04:11;25.90;45.90
39695;DHT22;25367;-35.352;149.036;2022-10-31T05:06:44;25.80;45.90
39695;DHT22;25367;-35.352;149.036;2022-10-31T05:09:14;25.80;45.80
39695;DHT22;25367;-35.352;149.036;2022-10-31T05:11:43;25.90;45.80
39695;DHT22;25367;-35.352;149.036;2022-10-31T05:14:35;25.90;45.80
39695;DHT22;25367;-35.352;149.036;2022-10-31T05:17:37;25.90;45.50
39695;DHT22;25367;-35.352;149.036;2022-10-31T05:20:42;26.00;45.50
39695;DHT22;25367;-35.352;149.036;2022-10-31T05:23:33;26.00;45.40
39695;DHT22;25367;-35.352;149.036;2022-10-31T05:26:02;26.00;45.60
39695;DHT22;25367;-35.352;149.036;2022-10-31T05:28:31;25.90;45.60
39695;DHT22;25367;-35.352;149.036;2022-10-31T05:31:01;25.90;45.60
39695;DHT22;25367;-35.352;149.036;2022-10-31T05:33:31;25.80;45.70
39695;DHT22;25367;-35.352;149.036;2022-10-31T05:36:09;25.80;45.70
39695;DHT22;25367;-35.352;149.036;2022-10-31T05:38:46;25.90;45.70
39695;DHT22;25367;-35.352;149.036;2022-10-31T05:41:26;25.90;45.60
39695;DHT22;25367;-35.352;149.036;2022-10-31T05:44:04;25.90;45.50
39695;DHT22;25367;-35.352;149.036;2022-10-31T05:46:39;25.90;45.40
39695;DHT22;25367;-35.352;149.036;2022-10-31T05:49:34;25.90;45.40
39695;DHT22;25367;-35.352;149.036;2022-10-31T05:52:29;25.90;45.40
39695;DHT22;25367;-35.352;149.036;2022-10-31T05:55:10;25.90;45.40
39695;DHT22;25367;-35.352;149.036;2022-10-31T05:57:43;25.80;45.60
39695;DHT22;25367;-35.352;149.036;2022-10-31T06:00:13;25.80;45.50
39695;DHT22;25367;-35.352;149.036;2022-10-31T06:02:53;25.80;45.60
39695;DHT22;25367;-35.352;149.036;2022-10-31T06:05:32;25.80;45.70
39695;DHT22;25367;-35.352;149.036;2022-10-31T06:08:01;25.80;45.60
39695;DHT22;25367;-35.352;149.036;2022-10-31T06:10:33;25.90;45.60
39695;DHT22;25367;-35.352;149.036;2022-10-31T06:13:02;25.80;45.50
39695;DHT22;25367;-35.352;149.036;2022-10-31T06:15:38;25.90;45.40
39695;DHT22;25367;-35.352;149.036;2022-10-31T06:18:10;25.90;45.40
39695;DHT22;25367;-35.352;149.036;2022-10-31T06:20:48;25.90;45.40
39695;DHT22;25367;-35.352;149.036;2022-10-31T06:23:18;25.90;45.40
39695;DHT22;25367;-35.352;149.036;2022-10-31T06:25:53;25.80;45.30
39695;DHT22;25367;-35.352;149.036;2022-10-31T06:28:22;25.80;45.30
39695;DHT22;25367;-35.352;149.036;2022-10-31T06:30:58;25.80;45.40
39695;DHT22;25367;-35.352;149.036;2022-10-31T06:33:28;25.80;45.60
39695;DHT22;25367;-35.352;149.036;2022-10-31T06:36:00;25.80;45.60
39695;DHT22;25367;-35.352;149.036;2022-10-31T06:38:30;25.80;45.60
39695;DHT22;25367;-35.352;149.036;2022-10-31T06:41:05;25.80;45.50
39695;DHT22;25367;-35.352;149.036;2022-10-31T06:43:47;25.80;45.40
39695;DHT22;25367;-35.352;149.036;2022-10-31T06:46:40;25.80;45.30
39695;DHT22;25367;-35.352;149.036;2022-10-31T06:49:26;25.90;45.20
39695;DHT22;25367;-35.352;149.036;2022-10-31T06:51:57;25.90;45.40
39695;DHT22;25367;-35.352;149.036;2022-10-31T06:54:26;25.80;45.30
39695;DHT22;25367;-35.352;149.036;2022-10-31T06:56:59;25.80;45.40
39695;DHT22;25367;-35.352;149.036;2022-10-31T06:59:29;25.80;45.40
39695;DHT22;25367;-35.352;149.036;2022-10-31T07:02:17;25.80;45.60
39695;DHT22;25367;-35.352;149.036;2022-10-31T07:04:46;25.70;45.50
39695;DHT22;25367;-35.352;149.036;2022-10-31T07:07:17;25.70;45.50
39695;DHT22;25367;-35.352;149.036;2022-10-31T07:09:47;25.80;46.10
39695;DHT22;25367;-35.352;149.036;2022-10-31T07:12:22;25.70;46.60
39695;DHT22;25367;-35.352;149.036;2022-10-31T07:14:59;25.70;46.50
39695;DHT22;25367;-35.352;149.036;2022-10-31T07:17:28;25.70;46.50
39695;DHT22;25367;-35.352;149.036;2022-10-31T07:19:59;25.70;46.50
39695;DHT22;25367;-35.352;149.036;2022-10-31T07:22:34;25.80;46.40
39695;DHT22;25367;-35.352;149.036;2022-10-31T07:25:05;25.80;46.50
39695;DHT22;25367;-35.352;149.036;2022-10-31T07:27:54;25.80;46.80
39695;DHT22;25367;-35.352;149.036;2022-10-31T07:30:24;25.70;47.00
39695;DHT22;25367;-35.352;149.036;2022-10-31T07:32:56;25.60;47.10
39695;DHT22;25367;-35.352;149.036;2022-10-31T07:35:30;25.60;47.10
39695;DHT22;25367;-35.352;149.036;2022-10-31T07:38:08;25.60;47.00
39695;DHT22;25367;-35.352;149.036;2022-10-31T07:40:38;25.60;47.10
39695;DHT22;25367;-35.352;149.036;2022-10-31T07:43:11;25.60;47.10
39695;DHT22;25367;-35.352;149.036;2022-10-31T07:46:07;25.60;47.20
39695;DHT22;25367;-35.352;149.036;2022-10-31T07:48:59;25.60;47.30
39695;DHT22;25367;-35.352;149.036;2022-10-31T07:52:04;25.60;47.30
39695;DHT22;25367;-35.352;149.036;2022-10-31T07:54:36;25.70;46.90
39695;DHT22;25367;-35.352;149.036;2022-10-31T07:57:06;25.60;47.00
39695;DHT22;25367;-35.352;149.036;2022-10-31T07:59:37;25.60;47.00
39695;DHT22;25367;-35.352;149.036;2022-10-31T08:02:09;25.60;46.80
39695;DHT22;25367;-35.352;149.036;2022-10-31T08:04:51;25.70;46.60
39695;DHT22;25367;-35.352;149.036;2022-10-31T08:07:38;25.60;46.60
39695;DHT22;25367;-35.352;149.036;2022-10-31T08:10:14;25.60;46.90
39695;DHT22;25367;-35.352;149.036;2022-10-31T08:12:44;25.70;46.60
39695;DHT22;25367;-35.352;149.036;2022-10-31T08:15:17;25.80;46.40
39695;DHT22;25367;-35.352;149.036;2022-10-31T08:17:46;25.80;46.10
39695;DHT22;25367;-35.352;149.036;2022-10-31T08:20:15;25.80;46.10
39695;DHT22;25367;-35.352;149.036;2022-10-31T08:22:55;25.80;46.20
39695;DHT22;25367;-35.352;149.036;2022-10-31T08:25:26;25.80;46.10
39695;DHT22;25367;-35.352;149.036;2022-10-31T08:27:56;25.80;46.30
39695;DHT22;25367;-35.352;149.036;2022-10-31T08:30:30;25.80;46.30
39695;DHT22;25367;-35.352;149.036;2022-10-31T08:33:18;25.70;46.30
39695;DHT22;25367;-35.352;149.036;2022-10-31T08:36:23;25.70;46.30
39695;DHT22;25367;-35.352;149.036;2022-10-31T08:38:55;25.80;46.30
39695;DHT22;25367;-35.352;149.036;2022-10-31T08:41:25;25.80;46.30
39695;DHT22;25367;-35.352;149.036;2022-10-31T08:43:55;25.80;46.30
39695;DHT22;25367;-35.352;149.036;2022-10-31T08:46:27;25.80;46.40
39695;DHT22;25367;-35.352;149.036;2022-10-31T08:48:56;25.90;46.60
39695;DHT22;25367;-35.352;149.036;2022-10-31T08:51:26;26.00;46.40
39695;DHT22;25367;-35.352;149.036;2022-10-31T08:53:57;26.00;46.30
39695;DHT22;25367;-35.352;149.036;2022-10-31T08:56:36;26.00;46.40
39695;DHT22;25367;-35.352;149.036;2022-10-31T08:59:12;26.00;46.60
39695;DHT22;25367;-35.352;149.036;2022-10-31T09:02:01;26.00;46.80
39695;DHT22;25367;-35.352;149.036;2022-10-31T09:04:32;26.00;46.70
39695;DHT22;25367;-35.352;149.036;2022-10-31T09:07:01;26.00;46.80
39695;DHT22;25367;-35.352;149.036;2022-10-31T09:09:30;26.10;46.80
39695;DHT22;25367;-35.352;149.036;2022-10-31T09:12:00;26.10;46.80
39695;DHT22;25367;-35.352;149.036;2022-10-31T09:14:58;26.10;46.60
39695;DHT22;25367;-35.352;149.036;2022-10-31T09:17:37;26.20;46.70
39695;DHT22;25367;-35.352;149.036;2022-10-31T09:20:30;26.20;46.60
39695;DHT22;25367;-35.352;149.036;2022-10-31T09:23:00;26.10;46.50
39695;DHT22;25367;-35.352;149.036;2022-10-31T09:25:32;26.10;46.70
39695;DHT22;25367;-35.352;149.036;2022-10-31T09:28:23;26.20;47.30
39695;DHT22;25367;-35.352;149.036;2022-10-31T09:30:55;26.10;46.80
39695;DHT22;25367;-35.352;149.036;2022-10-31T09:33:58;26.10;46.90
39695;DHT22;25367;-35.352;149.036;2022-10-31T09:36:39;26.10;46.70
39695;DHT22;25367;-35.352;149.036;2022-10-31T09:39:23;26.20;46.50
39695;DHT22;25367;-35.352;149.036;2022-10-31T09:42:26;26.30;46.40
39695;DHT22;25367;-35.352;149.036;2022-10-31T09:45:07;26.30;46.30
39695;DHT22;25367;-35.352;149.036;2022-10-31T09:47:52;26.30;46.20
39695;DHT22;25367;-35.352;149.036;2022-10-31T09:50:41;26.30;46.20
39695;DHT22;25367;-35.352;149.036;2022-10-31T10:05:01;26.20;46.10
39695;DHT22;25367;-35.352;149.036;2022-10-31T10:07:41;26.10;46.30
39695;DHT22;25367;-35.352;149.036;2022-10-31T10:10:40;26.10;46.30
39695;DHT22;25367;-35.352;149.036;2022-10-31T10:13:39;26.10;46.40
39695;DHT22;25367;-35.352;149.036;2022-10-31T10:16:25;26.10;46.40
39695;DHT22;25367;-35.352;149.036;2022-10-31T10:19:07;26.00;46.40
39695;DHT22;25367;-35.352;149.036;2022-10-31T10:21:45;26.10;46.50
39695;DHT22;25367;-35.352;149.036;2022-10-31T10:24:28;26.00;46.50
39695;DHT22;25367;-35.352;149.036;2022-10-31T10:27:05;26.00;46.50
39695;DHT22;25367;-35.352;149.036;2022-10-31T10:29:43;25.90;46.50
